Time;durP1;ratioP1;P1;durP2;ratioP2;P2;SDS_P1;SDS_P2;PMS_P1;PMS_P2;Temp;Humidity;BMP_temperature;BMP_pressure;BME280_temperature;BME280_humidity;BME280_pressure;Samples;Min_cycle;Max_cycle;Signal;HPM_P1;HPM_P2
2022/02/15 00:01:14;;;;;;;46.42;27.95;;;;;;;1.75;100.00;99032.97;5117934;28;20096;-75
2022/02/15 00:03:58;;;;;;;50.30;24.77;;;;;;;1.75;100.00;99041.56;5118067;28;20039;-75
2022/02/15 00:06:43;;;;;;;43.70;23.90;;;;;;;1.80;100.00;99042.44;5102814;28;20055;-75
2022/02/15 00:09:28;;;;;;;46.15;25.35;;;;;;;1.84;100.00;99048.47;5118092;28;20067;-75
2022/02/15 00:12:12;;;;;;;46.83;25.75;;;;;;;1.91;100.00;99050.16;5117004;28;20054;-75
2022/02/15 00:14:56;;;;;;;44.75;23.23;;;;;;;1.94;100.00;99044.13;5117113;28;20047;-75
2022/02/15 00:17:42;;;;;;;42.13;22.48;;;;;;;1.96;100.00;99053.59;5117745;28;20039;-75
2022/02/15 00:20:27;;;;;;;39.22;21.45;;;;;;;2.03;100.00;99036.38;5116869;28;20044;-75
2022/02/15 00:23:11;;;;;;;35.10;20.38;;;;;;;1.99;100.00;99027.78;5117300;28;20437;-75
2022/02/15 00:25:56;;;;;;;34.88;19.40;;;;;;;2.09;100.00;99041.53;5116816;28;20118;-74
2022/02/15 00:28:41;;;;;;;34.05;19.67;;;;;;;2.14;100.00;99031.16;5102499;28;20039;-75
2022/02/15 00:31:25;;;;;;;31.23;17.42;;;;;;;2.15;100.00;99038.91;5116650;28;20054;-75
2022/02/15 00:34:11;;;;;;;31.77;18.33;;;;;;;2.15;100.00;99030.31;5117367;28;20434;-75
2022/02/15 00:36:55;;;;;;;32.72;17.73;;;;;;;2.18;100.00;99031.16;5102421;28;20050;-75
2022/02/15 00:39:42;;;;;;;33.75;17.35;;;;;;;2.13;100.00;99026.88;5116827;28;20449;-75
2022/02/15 00:42:26;;;;;;;32.60;19.35;;;;;;;2.22;100.00;99037.16;5116400;28;20036;-75
2022/02/15 00:45:11;;;;;;;28.42;17.52;;;;;;;2.25;100.00;99032.84;5116425;28;20052;-75
2022/02/15 00:47:55;;;;;;;30.30;18.52;;;;;;;2.17;100.00;99006.16;5116475;28;20039;-75
2022/02/15 00:50:40;;;;;;;36.30;20.73;;;;;;;2.37;100.00;99038.81;5102220;28;20142;-75
2022/02/15 00:53:24;;;;;;;37.97;21.63;;;;;;;2.36;100.00;99035.38;5116563;28;20050;-75
2022/02/15 00:56:09;;;;;;;36.35;21.30;;;;;;;2.41;100.00;99022.47;5116980;28;20400;-75
2022/02/15 00:58:54;;;;;;;41.22;23.35;;;;;;;2.30;100.00;99002.66;5116995;28;20044;-75
2022/02/15 01:01:39;;;;;;;43.97;23.17;;;;;;;2.29;100.00;98990.63;5116081;28;20044;-75
2022/02/15 01:04:25;;;;;;;40.60;23.27;;;;;;;2.44;100.00;99015.53;5116129;28;20051;-75
2022/02/15 01:07:09;;;;;;;37.85;22.85;;;;;;;2.39;100.00;99011.25;5116048;28;20349;-75
2022/02/15 01:09:54;;;;;;;36.58;22.65;;;;;;;2.37;100.00;99013.81;5116268;28;20039;-75
2022/02/15 01:12:40;;;;;;;34.30;19.80;;;;;;;2.41;100.00;99025.03;5116764;28;20349;-75
2022/02/15 01:15:24;;;;;;;36.40;22.52;;;;;;;2.28;100.00;99016.47;5115972;28;20032;-74
2022/02/15 01:18:09;;;;;;;36.17;21.02;;;;;;;2.34;100.00;99019.91;5116614;28;20036;-75
2022/02/15 01:20:53;;;;;;;34.35;20.42;;;;;;;2.29;100.00;99016.47;5116718;28;20430;-75
2022/02/15 01:23:38;;;;;;;39.67;23.52;;;;;;;2.31;100.00;99008.72;5115890;28;20050;-75
2022/02/15 01:26:23;;;;;;;36.10;21.55;;;;;;;2.36;100.00;99016.44;5115804;28;20508;-75
2022/02/15 01:29:07;;;;;;;36.75;21.80;;;;;;;2.37;100.00;99016.41;5115777;28;20043;-75
2022/02/15 01:31:52;;;;;;;39.88;20.95;;;;;;;2.36;100.00;99006.94;5115728;28;20050;-75
2022/02/15 01:34:37;;;;;;;34.13;20.50;;;;;;;2.28;100.00;98996.66;5116411;28;20050;-75
2022/02/15 01:37:22;;;;;;;36.03;19.65;;;;;;;2.40;100.00;99003.47;5115615;28;20069;-75
2022/02/15 01:40:07;;;;;;;32.55;18.58;;;;;;;2.38;100.00;98994.03;5115320;28;20534;-75
2022/02/15 01:42:52;;;;;;;36.05;21.27;;;;;;;2.33;100.00;98994.03;5101360;28;20051;-75
2022/02/15 01:45:37;;;;;;;38.85;22.73;;;;;;;2.30;100.00;98984.56;5115570;28;20426;-75
2022/02/15 01:48:21;;;;;;;39.90;22.50;;;;;;;2.27;100.00;98994.91;5116195;28;20035;-75
2022/02/15 01:51:06;;;;;;;37.30;21.25;;;;;;;2.22;100.00;98990.66;5115506;28;20040;-75
2022/02/15 01:53:50;;;;;;;47.75;25.05;;;;;;;2.14;100.00;98988.09;5115564;28;20360;-75
2022/02/15 01:56:35;;;;;;;49.60;26.55;;;;;;;2.08;100.00;98980.34;5116348;28;20044;-75
2022/02/15 01:59:22;;;;;;;46.58;25.77;;;;;;;2.06;100.00;98992.44;5115445;28;20039;-75
2022/02/15 02:02:06;;;;;;;42.25;23.10;;;;;;;1.99;100.00;98988.16;5101159;28;20035;-75
2022/02/15 02:07:56;;;;;;;30.65;19.42;;;;;;;1.89;100.00;98987.34;5115423;28;20039;-75
2022/02/15 02:10:45;;;;;;;38.65;21.83;;;;;;;1.82;100.00;98983.03;5117866;28;20349;-75
2022/02/15 02:13:39;;;;;;;40.63;22.25;;;;;;;1.78;100.00;98983.91;5119439;28;20039;-75
2022/02/15 02:16:34;;;;;;;44.53;24.20;;;;;;;1.76;100.00;98991.69;5105471;28;20039;-75
2022/02/15 02:19:26;;;;;;;41.47;24.05;;;;;;;1.64;100.00;98981.38;5105898;28;20040;-75
2022/02/15 02:22:11;;;;;;;37.15;22.40;;;;;;;1.65;100.00;98985.66;5118977;28;20441;-75
2022/02/15 02:24:58;;;;;;;37.25;21.10;;;;;;;1.66;100.00;99005.47;5105068;28;20076;-75
2022/02/15 02:27:44;;;;;;;34.63;19.77;;;;;;;1.64;100.00;99000.31;5104881;28;20066;-75
2022/02/15 02:30:29;;;;;;;41.90;21.08;;;;;;;1.56;100.00;99001.16;5119766;28;20050;-75
2022/02/15 02:33:17;;;;;;;37.22;20.08;;;;;;;1.53;100.00;98999.47;5118934;28;20067;-75
2022/02/15 02:36:01;;;;;;;33.70;20.42;;;;;;;1.55;100.00;99005.47;5119090;28;20040;-75
2022/02/15 02:38:47;;;;;;;35.90;20.85;;;;;;;1.48;100.00;99001.19;5119101;28;20109;-75
2022/02/15 02:41:34;;;;;;;35.58;20.58;;;;;;;1.42;100.00;99000.34;5104736;28;20043;-75
2022/02/15 02:44:18;;;;;;;40.08;21.13;;;;;;;1.36;100.00;99009.78;5118839;28;20035;-75
2022/02/15 02:47:04;;;;;;;39.22;21.70;;;;;;;1.27;100.00;99017.56;5104570;28;20046;-75
2022/02/15 02:49:49;;;;;;;37.08;21.02;;;;;;;1.18;100.00;99012.41;5118772;28;20040;-75
2022/02/15 02:52:34;;;;;;;37.53;19.88;;;;;;;1.02;100.00;98998.63;5104393;28;20452;-75
2022/02/15 02:55:18;;;;;;;32.72;19.60;;;;;;;1.00;100.00;99005.50;5118619;28;20110;-75
2022/02/15 02:58:06;;;;;;;37.50;20.27;;;;;;;0.88;100.00;98985.75;5119275;28;20040;-75
2022/02/15 03:00:51;;;;;;;36.30;19.52;;;;;;;0.93;100.00;98994.31;5118780;28;20046;-75
2022/02/15 03:03:40;;;;;;;35.47;18.67;;;;;;;0.89;100.00;98997.75;5118741;28;20040;-75
2022/02/15 03:06:26;;;;;;;35.00;18.77;;;;;;;0.95;100.00;99007.22;5118431;28;20066;-75
2022/02/15 03:09:11;;;;;;;30.60;18.02;;;;;;;0.87;100.00;99003.75;5104065;28;20440;-75
2022/02/15 03:11:56;;;;;;;32.72;18.88;;;;;;;0.70;100.00;99003.75;5118370;28;20051;-75
2022/02/15 03:14:41;;;;;;;36.20;19.80;;;;;;;0.62;100.00;99013.19;5118336;28;20426;-75
2022/02/15 03:17:25;;;;;;;33.42;19.25;;;;;;;0.65;100.00;99023.47;5103808;28;20043;-75
2022/02/15 03:20:11;;;;;;;37.35;19.80;;;;;;;0.64;100.00;99006.31;5118162;28;20331;-75
2022/02/15 03:22:58;;;;;;;34.22;18.88;;;;;;;0.69;100.00;99013.19;5116861;28;20449;-75
2022/02/15 03:25:43;;;;;;;31.88;19.15;;;;;;;0.70;100.00;99012.34;5103890;28;20353;-75
2022/02/15 03:28:30;;;;;;;31.13;17.40;;;;;;;0.70;100.00;99009.75;5103946;28;20122;-75
2022/02/15 03:31:16;;;;;;;28.95;17.83;;;;;;;0.68;100.00;99020.91;5117908;28;20420;-75
2022/02/15 03:34:04;;;;;;;35.20;18.92;;;;;;;0.71;100.00;99031.25;5118053;28;20062;-75
2022/02/15 03:36:52;;;;;;;33.08;19.20;;;;;;;0.68;100.00;99015.75;5118062;28;20040;-75
2022/02/15 03:39:37;;;;;;;33.10;19.02;;;;;;;0.76;100.00;99029.53;5117975;28;20047;-75
2022/02/15 03:45:32;;;;;;;35.08;20.40;;;;;;;0.83;100.00;99023.53;5103202;28;20070;-75
2022/02/15 03:48:31;;;;;;;31.88;17.08;;;;;;;0.89;100.00;99018.38;5105303;28;20044;-75
2022/02/15 03:51:16;;;;;;;33.03;17.92;;;;;;;0.91;100.00;99016.69;5117414;28;20473;-75
2022/02/15 03:54:06;;;;;;;35.33;19.00;;;;;;;0.91;100.00;99019.25;5117540;28;20096;-75
2022/02/15 03:56:50;;;;;;;36.72;19.33;;;;;;;0.94;100.00;99020.97;5103164;28;20134;-75
2022/02/15 03:59:35;;;;;;;33.85;18.05;;;;;;;1.02;100.00;99031.31;5103128;28;20051;-75
2022/02/15 04:02:22;;;;;;;40.55;20.98;;;;;;;1.05;100.00;99027.00;5103239;28;20043;-75
2022/02/15 04:05:08;;;;;;;41.30;20.80;;;;;;;1.11;100.00;99023.59;5102907;28;20059;-75
2022/02/15 04:07:53;;;;;;;42.65;21.60;;;;;;;1.06;100.00;99017.53;5117261;28;20039;-75
2022/02/15 04:10:38;;;;;;;34.88;20.25;;;;;;;1.14;100.00;99023.59;5117197;28;20093;-75
2022/02/15 04:13:24;;;;;;;37.47;20.30;;;;;;;1.22;100.00;99032.16;5117099;28;20051;-75
2022/02/15 04:16:10;;;;;;;40.15;21.10;;;;;;;1.24;100.00;99025.31;5117029;28;20043;-75
2022/02/15 04:18:56;;;;;;;35.40;20.58;;;;;;;1.31;100.00;99031.31;5117215;28;20047;-75
2022/02/15 04:21:41;;;;;;;33.83;18.98;;;;;;;1.33;100.00;99027.88;5116908;28;20130;-75
2022/02/15 04:24:27;;;;;;;35.25;20.08;;;;;;;1.33;100.00;99021.84;5102691;28;20043;-75
2022/02/15 04:27:12;;;;;;;59.50;27.42;;;;;;;1.36;100.00;99027.84;5102526;28;20096;-75
2022/02/15 04:29:58;;;;;;;92.88;37.05;;;;;;;1.42;100.00;99032.16;5116876;28;20122;-75
2022/02/15 04:32:42;;;;;;;90.70;36.70;;;;;;;1.44;100.00;99025.28;5116408;28;20048;-75
2022/02/15 04:35:27;;;;;;;99.72;42.80;;;;;;;1.50;100.00;99034.75;5117418;28;20141;-75
2022/02/15 04:38:13;;;;;;;115.72;46.85;;;;;;;1.36;100.00;99043.34;5116609;28;20422;-75
2022/02/15 04:40:58;;;;;;;93.38;39.63;;;;;;;1.55;100.00;99051.09;5116751;28;20430;-75
2022/02/15 04:43:46;;;;;;;84.63;35.72;;;;;;;1.59;100.00;99039.88;5116571;28;20047;-75
2022/02/15 04:46:40;;;;;;;72.15;30.90;;;;;;;1.58;100.00;99033.88;5116543;28;20046;-75
2022/02/15 04:49:27;;;;;;;52.80;28.05;;;;;;;1.67;100.00;99037.31;5102237;28;20051;-75
2022/02/15 04:52:12;;;;;;;44.42;23.23;;;;;;;1.67;100.00;99038.16;5102027;28;20039;-75
2022/02/15 04:54:58;;;;;;;41.97;23.50;;;;;;;1.70;100.00;99033.00;5116436;28;20054;-75
2022/02/15 04:57:42;;;;;;;57.70;26.42;;;;;;;1.74;100.00;99042.44;5116510;28;20039;-75
2022/02/15 05:00:30;;;;;;;65.47;28.35;;;;;;;1.63;100.00;99032.16;5101894;28;20052;-75
2022/02/15 05:03:23;;;;;;;61.80;28.42;;;;;;;1.69;100.00;99039.03;5116032;28;20043;-75
2022/02/15 05:06:13;;;;;;;59.00;28.13;;;;;;;1.71;100.00;99042.47;5116122;28;20096;-75
2022/02/15 05:08:57;;;;;;;49.72;25.92;;;;;;;1.70;100.00;99045.91;5101759;28;20036;-75
2022/02/15 05:11:41;;;;;;;47.65;23.50;;;;;;;1.69;100.00;99056.22;5116105;28;20043;-75
2022/02/15 05:14:26;;;;;;;42.65;24.02;;;;;;;1.64;100.00;99061.41;5115969;28;20044;-75
2022/02/15 05:17:12;;;;;;;40.55;23.52;;;;;;;1.58;100.00;99045.91;5115976;28;20036;-75
2022/02/15 05:19:56;;;;;;;45.30;23.65;;;;;;;1.58;100.00;99051.09;5115896;28;20102;-75
2022/02/15 05:22:41;;;;;;;45.15;24.27;;;;;;;1.59;100.00;99048.50;5115618;28;20051;-75
2022/02/15 05:25:25;;;;;;;39.58;23.52;;;;;;;1.64;100.00;99061.41;5116479;28;20046;-75
2022/02/15 05:28:10;;;;;;;38.67;22.77;;;;;;;1.63;100.00;99057.13;5101466;28;20046;-75
2022/02/15 05:30:56;;;;;;;37.03;21.58;;;;;;;1.61;100.00;99048.50;5101648;28;20040;-75
2022/02/15 05:33:48;;;;;;;40.25;22.67;;;;;;;1.65;100.00;99045.03;5115706;28;20039;-75
2022/02/15 05:36:35;;;;;;;40.65;23.45;;;;;;;1.71;100.00;99046.75;5101555;28;20119;-75
2022/02/15 05:39:21;;;;;;;40.15;23.30;;;;;;;1.74;100.00;99036.44;5101192;28;20046;-75
2022/02/15 05:42:13;;;;;;;40.07;21.97;;;;;;;1.84;100.00;99051.03;5102458;28;20035;-75
2022/02/15 05:44:58;;;;;;;47.85;24.40;;;;;;;1.84;100.00;99044.16;5115026;28;20043;-75
2022/02/15 05:47:42;;;;;;;47.13;25.88;;;;;;;1.83;100.00;99050.19;5115645;28;20043;-75
2022/02/15 05:53:35;;;;;;;51.08;27.05;;;;;;;1.92;100.00;99067.41;5115641;28;20105;-75
2022/02/15 05:56:20;;;;;;;50.40;26.48;;;;;;;1.85;100.00;99070.81;5101326;28;20440;-75
2022/02/15 05:59:34;;;;;;;49.58;25.83;;;;;;;1.97;100.00;99072.53;5110076;28;20157;-75
2022/02/15 06:02:23;;;;;;;53.13;28.25;;;;;;;1.97;100.00;99065.66;5115187;28;20043;-75
2022/02/15 06:05:14;;;;;;;50.00;25.85;;;;;;;2.03;100.00;99085.44;5115036;28;20055;-75
2022/02/15 06:08:04;;;;;;;46.80;25.85;;;;;;;2.05;100.00;99086.31;5115135;28;20433;-75
2022/02/15 06:10:55;;;;;;;52.65;28.98;;;;;;;2.02;100.00;99089.75;5115068;28;20356;-75
2022/02/15 06:13:57;;;;;;;45.83;26.98;;;;;;;2.09;100.00;99093.19;5102651;28;20036;-75
2022/02/15 06:16:42;;;;;;;44.88;25.67;;;;;;;2.17;100.00;99101.75;5100734;28;20055;-75
2022/02/15 06:19:34;;;;;;;41.80;25.45;;;;;;;2.08;100.00;99109.53;5115641;28;20040;-75
2022/02/15 06:22:18;;;;;;;48.13;26.90;;;;;;;2.15;100.00;99106.09;5100418;28;20052;-75
2022/02/15 06:25:04;;;;;;;45.72;26.55;;;;;;;2.19;100.00;99117.28;5115651;28;20044;-75
2022/02/15 06:28:03;;;;;;;42.67;25.50;;;;;;;2.26;100.00;99119.84;5115060;28;20040;-80
2022/02/15 06:31:10;;;;;;;42.30;24.63;;;;;;;2.27;100.00;99110.34;5103705;28;20040;-77
2022/02/15 06:33:56;;;;;;;40.75;24.30;;;;;;;2.37;100.00;99121.53;5100820;28;20043;-77
2022/02/15 06:36:40;;;;;;;45.25;25.17;;;;;;;2.41;100.00;99121.53;5115614;28;20050;-77
2022/02/15 06:39:24;;;;;;;39.20;24.15;;;;;;;2.45;100.00;99130.13;5101000;28;20043;-77
2022/02/15 06:42:13;;;;;;;46.22;24.98;;;;;;;2.47;100.00;99125.78;5114852;28;20039;-76
2022/02/15 06:44:58;;;;;;;45.83;24.30;;;;;;;2.52;100.00;99134.41;5113953;28;20190;-76
2022/02/15 06:47:44;;;;;;;46.45;26.00;;;;;;;2.54;100.00;99124.94;5099218;28;20040;-75
2022/02/15 06:50:29;;;;;;;44.65;24.33;;;;;;;2.63;100.00;99142.13;5114643;28;20050;-75
2022/02/15 06:53:34;;;;;;;41.65;24.98;;;;;;;2.67;100.00;99143.84;5113688;28;20054;-75
2022/02/15 06:56:31;;;;;;;38.58;24.73;;;;;;;2.70;100.00;99141.25;5102096;28;20078;-75
2022/02/15 06:59:20;;;;;;;46.78;25.48;;;;;;;2.72;100.00;99152.44;5116586;28;20040;-75
2022/02/15 07:02:04;;;;;;;46.15;26.15;;;;;;;2.81;100.00;99158.44;5102139;28;20043;-75
2022/02/15 07:04:54;;;;;;;43.42;25.13;;;;;;;2.85;100.00;99150.66;5116447;28;20043;-75
2022/02/15 07:07:39;;;;;;;40.00;23.33;;;;;;;2.89;100.00;99150.63;5102117;28;20107;-75
2022/02/15 07:10:28;;;;;;;41.75;25.60;;;;;;;2.94;100.00;99163.56;5116458;28;20433;-75
2022/02/15 07:13:16;;;;;;;38.97;23.02;;;;;;;3.00;100.00;99169.56;5116227;28;20047;-75
2022/02/15 07:16:00;;;;;;;39.70;23.92;;;;;;;3.06;100.00;99162.66;5116818;28;20040;-75
2022/02/15 07:18:46;;;;;;;35.30;22.45;;;;;;;3.12;100.00;99171.25;5117003;28;20047;-75
2022/02/15 07:21:31;;;;;;;36.85;22.02;;;;;;;3.21;100.00;99168.59;5116608;28;20063;-75
2022/02/15 07:24:35;;;;;;;41.50;24.60;;;;;;;3.25;100.00;99167.72;5117193;28;20040;-75
2022/02/15 07:27:38;;;;;;;38.13;22.48;;;;;;;3.33;100.00;99174.59;5118344;28;20046;-75
2022/02/15 07:30:28;;;;;;;39.75;23.75;;;;;;;3.34;100.00;99171.97;5104242;28;20327;-75
2022/02/15 07:33:22;;;;;;;39.00;23.45;;;;;;;3.28;100.00;99172.88;5117829;28;20043;-75
2022/02/15 07:36:07;;;;;;;38.85;22.13;;;;;;;3.41;100.00;99190.91;5118221;28;20032;-75
2022/02/15 07:38:51;;;;;;;45.83;27.08;;;;;;;3.35;100.00;99184.06;5117709;28;20138;-75
2022/02/15 07:41:36;;;;;;;53.45;28.58;;;;;;;3.45;100.00;99187.47;5118317;28;20185;-75
2022/02/15 07:44:21;;;;;;;50.33;28.83;;;;;;;3.55;100.00;99191.69;5118097;28;20035;-75
2022/02/15 07:47:06;;;;;;;57.55;29.20;;;;;;;3.59;100.00;99192.53;5103588;28;20043;-75
2022/02/15 07:49:51;;;;;;;59.42;30.98;;;;;;;3.35;100.00;99188.34;5116096;28;20040;-75
2022/02/15 07:52:35;;;;;;;56.78;29.23;;;;;;;3.58;100.00;99191.69;5112175;28;20118;-75
2022/02/15 07:55:20;;;;;;;48.90;27.25;;;;;;;3.71;100.00;99188.13;5101048;28;20347;-75
2022/02/15 07:58:05;;;;;;;49.05;25.77;;;;;;;3.82;100.00;99200.16;5116148;28;20299;-75
2022/02/15 08:00:49;;;;;;;48.30;27.48;;;;;;;3.69;100.00;99191.59;5117496;28;20047;-75
2022/02/15 08:03:33;;;;;;;46.08;26.35;;;;;;;3.82;100.00;99190.63;5117162;28;20329;-75
2022/02/15 08:06:18;;;;;;;51.60;29.42;;;;;;;3.95;100.00;99199.19;5102817;28;20086;-75
2022/02/15 08:09:03;;;;;;;48.67;29.88;;;;;;;3.92;100.00;99202.66;5116980;28;20043;-75
2022/02/15 08:11:54;;;;;;;51.78;30.25;;;;;;;4.01;100.00;99198.28;5102623;28;20326;-76
2022/02/15 08:14:39;;;;;;;53.90;31.10;;;;;;;4.12;100.00;99199.88;5102574;28;20066;-75
2022/02/15 08:17:23;;;;;;;55.53;30.38;;;;;;;4.29;100.00;99204.94;5116918;28;20322;-75
2022/02/15 08:20:08;;;;;;;52.60;29.98;;;;;;;4.33;100.00;99185.03;5102993;28;20059;-75
2022/02/15 08:22:52;;;;;;;51.38;28.33;;;;;;;4.58;100.00;99204.66;5116614;28;20055;-75
2022/02/15 08:25:37;;;;;;;56.97;30.65;;;;;;;4.65;100.00;99210.66;5102464;28;20043;-75
2022/02/15 08:28:22;;;;;;;54.92;32.03;;;;;;;4.79;100.00;99207.91;5117190;28;20044;-75
2022/02/15 08:31:06;;;;;;;49.47;29.23;;;;;;;5.08;100.00;99204.97;5116783;28;20039;-75
2022/02/15 08:33:52;;;;;;;48.88;27.80;;;;;;;5.27;100.00;99218.56;5102417;28;20131;-75
2022/02/15 08:36:36;;;;;;;53.08;30.23;;;;;;;5.58;100.00;99219.84;5117014;28;20061;-75
2022/02/15 08:39:21;;;;;;;53.42;30.23;;;;;;;5.54;100.00;99212.13;5116755;28;20360;-75
2022/02/15 08:42:05;;;;;;;88.40;49.80;;;;;;;5.79;100.00;99210.03;5116745;28;20035;-75
2022/02/15 08:44:53;;;;;;;143.45;88.18;;;;;;;5.75;100.00;99184.97;5116426;28;20046;-75
2022/02/15 08:47:38;;;;;;;113.32;66.57;;;;;;;5.83;100.00;99216.91;5116337;28;20119;-75
2022/02/15 08:50:23;;;;;;;87.75;51.50;;;;;;;6.09;100.00;99219.13;5117568;28;20062;-75
2022/02/15 08:53:07;;;;;;;62.90;38.17;;;;;;;6.20;100.00;99224.16;5116288;28;20050;-75
2022/02/15 08:55:53;;;;;;;59.75;37.40;;;;;;;6.26;100.00;99217.09;5116202;28;20318;-75
2022/02/15 08:58:37;;;;;;;55.10;36.00;;;;;;;6.39;100.00;99219.50;5116128;28;20099;-75
2022/02/15 09:01:22;;;;;;;49.15;30.27;;;;;;;6.32;100.00;99214.41;5116094;28;20096;-75
2022/02/15 09:04:07;;;;;;;41.22;25.08;;;;;;;6.47;100.00;99226.28;5116650;28;20050;-75
2022/02/15 09:06:53;;;;;;;43.20;24.02;;;;;;;6.63;100.00;99229.47;5116820;28;20065;-75
2022/02/15 09:09:38;;;;;;;38.00;20.25;;;;;;;6.76;100.00;99230.13;5117161;28;20058;-75
2022/02/15 09:12:23;;;;;;;37.58;21.05;;;;;;;6.91;100.00;99234.16;5116467;28;20036;-75
2022/02/15 09:15:12;;;;;;;44.42;22.65;;;;;;;6.70;94.60;99235.44;5101514;28;20077;-75
2022/02/15 09:17:58;;;;;;;46.40;24.70;;;;;;;6.99;99.69;99227.06;5116670;28;20043;-75
2022/02/15 09:20:43;;;;;;;40.25;21.13;;;;;;;7.13;97.33;99234.59;5114863;28;20050;-75
2022/02/15 09:23:29;;;;;;;151.50;59.40;;;;;;;7.26;97.29;99231.72;5101201;28;20077;-75
2022/02/15 09:26:13;;;;;;;167.60;79.22;;;;;;;7.55;96.05;99247.63;5116730;28;20118;-75
2022/02/15 09:28:58;;;;;;;220.60;111.43;;;;;;;7.65;94.41;99247.38;5115649;28;20050;-75
2022/02/15 09:31:42;;;;;;;131.52;67.60;;;;;;;7.57;90.83;99258.84;5111136;28;20055;-77
2022/02/15 09:34:27;;;;;;;48.45;27.42;;;;;;;7.78;92.92;99247.97;5101500;28;20051;-75
2022/02/15 09:37:11;;;;;;;35.55;23.92;;;;;;;8.00;91.49;99243.13;5110647;28;20040;-77
2022/02/15 09:39:56;;;;;;;41.72;24.33;;;;;;;8.37;90.86;99256.13;5114903;28;20430;-77
2022/02/15 09:42:41;;;;;;;49.75;28.17;;;;;;;8.18;87.79;99255.72;5113511;28;20070;-77
2022/02/15 09:45:26;;;;;;;85.78;39.83;;;;;;;8.45;87.52;99248.16;5113500;28;20068;-76
2022/02/15 09:48:10;;;;;;;93.28;42.28;;;;;;;8.81;87.08;99253.31;5113455;28;20114;-77
2022/02/15 09:50:55;;;;;;;86.28;39.45;;;;;;;9.04;85.36;99247.47;5114282;28;20031;-77
2022/02/15 09:53:40;;;;;;;56.80;26.80;;;;;;;8.96;82.11;99250.28;5114243;28;20071;-77
2022/02/15 09:56:25;;;;;;;40.70;21.40;;;;;;;8.95;81.33;99253.78;5113451;28;20096;-77
2022/02/15 09:59:13;;;;;;;52.92;27.70;;;;;;;8.98;82.81;99240.66;5099828;28;20036;-77
2022/02/15 10:02:04;;;;;;;50.05;25.70;;;;;;;9.10;83.12;99256.00;5114448;28;20032;-76
2022/02/15 10:04:53;;;;;;;42.67;22.58;;;;;;;8.90;81.34;99226.94;5115114;28;20051;-77
2022/02/15 10:07:47;;;;;;;45.67;22.73;;;;;;;9.25;81.47;99261.69;5116421;28;20035;-77
2022/02/15 10:10:36;;;;;;;37.17;20.52;;;;;;;9.36;82.03;99262.25;5115691;28;20039;-77
2022/02/15 10:13:21;;;;;;;32.28;17.33;;;;;;;9.45;81.83;99259.34;5115643;28;20097;-77
2022/02/15 10:16:05;;;;;;;34.33;19.10;;;;;;;9.38;80.08;99255.19;5115203;28;20327;-76
2022/02/15 10:18:56;;;;;;;35.05;19.48;;;;;;;9.40;79.86;99269.09;5115902;28;20383;-78
2022/02/15 10:21:40;;;;;;;37.13;20.93;;;;;;;9.27;81.04;99278.19;5115523;28;20132;-75
2022/02/15 10:24:27;;;;;;;32.63;18.23;;;;;;;9.28;81.29;99272.03;5115810;28;20476;-76
2022/02/15 10:27:12;;;;;;;44.63;24.38;;;;;;;9.38;81.60;99272.63;5115627;28;20406;-77
2022/02/15 10:29:57;;;;;;;59.95;32.35;;;;;;;9.32;81.27;99273.66;5115715;28;20406;-77
2022/02/15 10:32:41;;;;;;;61.25;33.10;;;;;;;9.21;80.11;99268.75;5119517;28;20422;-76
2022/02/15 10:35:26;;;;;;;46.88;28.40;;;;;;;9.05;80.02;99270.91;5104499;28;20047;-76
2022/02/15 10:38:10;;;;;;;34.33;19.88;;;;;;;9.12;81.96;99261.16;5119656;28;20059;-75
2022/02/15 10:41:01;;;;;;;33.42;17.50;;;;;;;9.30;81.69;99263.25;5117664;28;20039;-77
2022/02/15 10:43:56;;;;;;;32.88;17.05;;;;;;;9.30;80.21;99255.44;5116725;28;20035;-76
2022/02/15 10:46:41;;;;;;;25.08;15.52;;;;;;;9.36;80.95;99263.09;5116803;28;20036;-75
2022/02/15 10:49:25;;;;;;;29.83;17.42;;;;;;;9.33;79.76;99265.78;5102375;28;20437;-75
2022/02/15 10:52:11;;;;;;;52.33;27.67;;;;;;;9.33;80.85;99285.84;5117444;28;20372;-74
2022/02/15 10:54:56;;;;;;;47.35;26.35;;;;;;;9.36;81.25;99281.41;5117515;28;20441;-75
2022/02/15 10:57:41;;;;;;;34.55;18.67;;;;;;;9.24;81.72;99281.72;5118714;28;20096;-75
2022/02/15 11:00:25;;;;;;;24.35;14.43;;;;;;;9.14;82.67;99282.88;5118479;28;20120;-75
2022/02/15 11:03:11;;;;;;;23.05;13.93;;;;;;;9.16;83.67;99285.44;5119005;28;20039;-74
2022/02/15 11:05:56;;;;;;;23.95;14.80;;;;;;;9.21;84.15;99283.56;5119249;28;20043;-75
2022/02/15 11:08:44;;;;;;;39.75;23.85;;;;;;;9.30;83.45;99289.41;5119117;28;20040;-75
2022/02/15 11:11:42;;;;;;;53.88;33.83;;;;;;;9.20;83.58;99280.09;5103757;28;20045;-75
2022/02/15 11:14:26;;;;;;;75.28;47.78;;;;;;;9.36;83.70;99278.78;5118852;28;20047;-74
2022/02/15 11:17:15;;;;;;;51.45;36.67;;;;;;;9.32;82.37;99279.75;5118941;28;20405;-75
2022/02/15 11:20:02;;;;;;;43.78;28.35;;;;;;;9.45;83.23;99285.47;5118590;28;20442;-75
2022/02/15 11:22:52;;;;;;;27.35;17.55;;;;;;;9.42;82.17;99297.78;5118460;28;20064;-75
2022/02/15 11:25:37;;;;;;;31.77;17.70;;;;;;;9.45;83.06;99288.09;5118377;28;20040;-75
2022/02/15 11:28:26;;;;;;;29.80;17.05;;;;;;;9.49;83.70;99289.75;5118390;28;20414;-75
2022/02/15 11:31:10;;;;;;;29.27;16.85;;;;;;;9.56;82.97;99282.56;5117838;28;20343;-74
2022/02/15 11:33:56;;;;;;;25.77;15.43;;;;;;;9.69;82.33;99293.53;5118245;28;20044;-75
2022/02/15 11:36:48;;;;;;;25.95;15.00;;;;;;;9.56;81.45;99293.88;5117629;28;20413;-75
2022/02/15 11:39:38;;;;;;;24.05;15.02;;;;;;;9.58;82.21;99293.81;5117955;28;20043;-75
2022/02/15 11:42:22;;;;;;;22.65;13.75;;;;;;;9.58;82.46;99285.97;5116972;28;20040;-74
2022/02/15 11:45:27;;;;;;;24.27;14.82;;;;;;;9.67;81.79;99287.47;5118498;28;20043;-75
2022/02/15 11:48:11;;;;;;;30.73;15.93;;;;;;;9.74;82.92;99282.00;5117459;28;20046;-75
2022/02/15 11:50:56;;;;;;;27.23;15.85;;;;;;;9.87;82.81;99285.13;5103345;28;20077;-75
2022/02/15 11:53:44;;;;;;;26.95;15.43;;;;;;;9.97;82.39;99277.84;5117831;28;20055;-75
2022/02/15 11:56:30;;;;;;;25.95;15.40;;;;;;;9.97;79.94;99285.69;5118335;28;20192;-75
2022/02/15 11:59:22;;;;;;;23.33;12.32;;;;;;;9.92;81.00;99290.22;5118464;28;20043;-74
2022/02/15 12:02:06;;;;;;;22.77;14.32;;;;;;;9.90;80.99;99286.78;5118356;28;20048;-75
2022/02/15 12:04:56;;;;;;;24.73;13.27;;;;;;;9.72;79.68;99296.91;5118037;28;20092;-75
2022/02/15 12:07:40;;;;;;;22.58;13.65;;;;;;;9.64;80.91;99291.03;5103135;28;20043;-75
2022/02/15 12:10:39;;;;;;;22.65;13.80;;;;;;;9.70;81.15;99290.00;5117073;28;20044;-75
2022/02/15 12:13:23;;;;;;;23.75;13.63;;;;;;;9.70;82.24;99293.47;5103134;28;20043;-75
2022/02/15 12:16:09;;;;;;;29.33;13.75;;;;;;;9.72;82.62;99290.84;5117639;28;20322;-74
2022/02/15 12:18:53;;;;;;;20.58;13.32;;;;;;;9.80;82.72;99292.28;5118181;28;20044;-75
2022/02/15 12:21:39;;;;;;;22.48;12.60;;;;;;;9.72;83.52;99291.69;5117348;28;20089;-75
2022/02/15 12:24:25;;;;;;;20.92;12.68;;;;;;;9.59;83.67;99278.13;5117086;28;20047;-74
2022/02/15 12:27:14;;;;;;;27.88;14.55;;;;;;;9.52;84.23;99284.44;5117760;28;20047;-75
2022/02/15 12:29:58;;;;;;;27.17;16.20;;;;;;;9.55;86.23;99284.34;5117620;28;20036;-75
2022/02/15 12:32:46;;;;;;;28.08;14.50;;;;;;;9.37;88.94;99287.47;5102030;28;20047;-75
2022/02/15 12:35:31;;;;;;;22.85;13.23;;;;;;;9.38;88.83;99280.47;5102680;28;20478;-75
2022/02/15 12:38:16;;;;;;;22.60;13.57;;;;;;;9.30;91.24;99271.09;5116956;28;20046;-75
2022/02/15 12:41:00;;;;;;;23.90;15.40;;;;;;;9.38;89.57;99281.34;5117470;28;20109;-74
2022/02/15 12:43:46;;;;;;;23.58;13.48;;;;;;;9.20;91.51;99285.34;5116414;28;20035;-74
2022/02/15 12:46:31;;;;;;;22.00;13.15;;;;;;;9.16;90.95;99286.28;5117376;28;20058;-74
2022/02/15 12:49:15;;;;;;;27.75;13.40;;;;;;;9.14;92.17;99280.28;5117424;28;20036;-76
2022/02/15 12:52:00;;;;;;;24.85;14.88;;;;;;;9.12;93.79;99293.38;5116575;28;20081;-75
2022/02/15 12:54:56;;;;;;;23.30;13.38;;;;;;;9.10;93.23;99274.28;5101862;28;20391;-77
2022/02/15 12:57:45;;;;;;;22.50;12.10;;;;;;;8.98;93.22;99274.59;5101828;28;20039;-78